createdAt,value
2019-04-10T00:28:19.177Z,100.00
2019-04-10T01:03:15.713Z,100.00
2019-04-10T01:05:47.133Z,100.00
2019-04-10T01:08:18.186Z,100.00
2019-04-10T01:10:48.808Z,100.00
2019-04-10T01:13:19.407Z,100.00
2019-04-10T01:15:50.941Z,100.00
2019-04-10T01:18:21.858Z,100.00
2019-04-10T01:20:53.531Z,100.00
2019-04-10T01:23:24.639Z,100.00
2019-04-10T01:25:55.369Z,100.00
2019-04-10T01:28:26.889Z,100.00
2019-04-10T01:30:57.585Z,100.00
2019-04-10T01:33:28.351Z,100.00
2019-04-10T01:35:59.179Z,100.00
2019-04-10T01:38:30.163Z,100.00
2019-04-10T01:41:03.692Z,100.00
2019-04-10T01:43:37.199Z,100.00
2019-04-10T01:46:08.351Z,100.00
2019-04-10T01:48:45.072Z,100.00
2019-04-10T01:51:25.605Z,100.00
2019-04-10T01:53:59.205Z,100.00
2019-04-10T01:56:33.703Z,100.00
2019-04-10T01:59:02.460Z,100.00
2019-04-10T02:01:42.923Z,100.00
2019-04-10T02:04:14.285Z,100.00
2019-04-10T02:06:45.388Z,100.00
2019-04-10T02:09:16.105Z,100.00
2019-04-10T02:11:46.683Z,100.00
2019-04-10T02:14:18.315Z,100.00
2019-04-10T02:16:49.412Z,100.00
2019-04-10T02:19:26.119Z,100.00
2019-04-10T02:22:00.276Z,100.00
2019-04-10T02:24:31.900Z,100.00
2019-04-10T02:27:02.514Z,100.00
2019-04-10T02:29:33.586Z,100.00
2019-04-10T02:32:04.688Z,100.00
2019-04-10T02:34:36.944Z,100.00
2019-04-10T02:37:08.657Z,100.00
2019-04-10T02:39:44.758Z,100.00
2019-04-10T02:42:11.913Z,100.00
2019-04-10T02:44:43.986Z,100.00
2019-04-10T02:47:14.736Z,100.00
2019-04-10T02:49:47.078Z,100.00
2019-04-10T02:52:17.788Z,100.00
2019-04-10T02:54:49.112Z,100.00
2019-04-10T02:57:21.369Z,100.00
2019-04-10T03:20:58.455Z,100.00
2019-04-10T03:25:03.227Z,100.00
2019-04-10T05:03:22.825Z,100.00
2019-04-10T05:05:53.998Z,100.00
2019-04-10T05:08:24.408Z,100.00
2019-04-10T05:10:55.955Z,100.00
2019-04-10T06:11:24.670Z,100.00
2019-04-10T06:15:10.712Z,100.00
2019-04-10T06:24:48.787Z,100.00
2019-04-10T06:27:52.665Z,100.00
2019-04-10T06:32:37.602Z,100.00
2019-04-10T06:36:13.243Z,100.00
2019-04-10T06:43:26.941Z,100.00
2019-04-10T06:47:20.262Z,100.00
2019-04-10T06:57:16.513Z,100.00
2019-04-10T07:03:16.968Z,100.00
2019-04-10T07:16:29.977Z,100.00
2019-04-10T07:28:07.506Z,100.00
2019-04-10T09:03:14.850Z,90.29
2019-04-10T09:05:49.106Z,88.99
2019-04-10T09:08:21.450Z,89.44
2019-04-10T09:10:52.533Z,88.57
2019-04-10T09:13:24.226Z,88.04
2019-04-10T09:15:54.907Z,86.65
2019-04-10T09:18:31.583Z,87.17
2019-04-10T09:21:02.791Z,87.62
2019-04-10T09:23:44.032Z,86.44
2019-04-10T09:26:05.888Z,86.49
2019-04-10T09:28:36.474Z,87.88
2019-04-10T11:03:16.106Z,76.09
2019-04-10T11:05:46.981Z,78.05
2019-04-10T11:08:17.703Z,76.93
2019-04-10T11:10:53.461Z,76.97
2019-04-10T11:13:20.585Z,77.05
2019-04-10T11:15:52.501Z,76.62
2019-04-10T11:18:24.648Z,76.12
2019-04-10T11:21:00.671Z,75.99
2019-04-10T11:23:28.463Z,75.40
2019-04-10T11:25:59.777Z,74.46
2019-04-10T11:28:32.278Z,74.54
2019-04-10T11:31:02.691Z,74.75
2019-04-10T11:33:33.281Z,73.16
2019-04-10T11:36:03.874Z,74.16
2019-04-10T11:38:35.723Z,73.63
2019-04-10T11:41:07.556Z,75.45
2019-04-10T11:43:38.512Z,73.97
2019-04-10T11:46:10.279Z,72.10
2019-04-10T11:48:44.698Z,71.75
2019-04-10T11:51:14.133Z,72.04
2019-04-10T11:53:47.979Z,73.19
2019-04-10T11:56:18.938Z,73.06
2019-04-10T12:01:22.950Z,71.25
2019-04-10T12:03:56.661Z,70.38
2019-04-10T12:06:29.805Z,69.86
2019-04-10T12:09:19.493Z,71.18
2019-04-10T12:11:31.625Z,70.68
2019-04-10T12:14:02.998Z,72.87
2019-04-10T12:16:33.557Z,67.79
2019-04-10T12:19:04.712Z,69.08
2019-04-10T12:21:35.241Z,68.28
2019-04-10T12:24:05.740Z,67.81
2019-04-10T12:26:36.261Z,68.35
2019-04-10T12:29:06.925Z,69.01
2019-04-10T12:31:37.494Z,67.80
2019-04-10T12:34:08.841Z,68.37
2019-04-10T12:36:39.550Z,66.20
2019-04-10T12:39:12.090Z,67.93
2019-04-10T12:41:43.602Z,67.00
2019-04-10T12:44:16.336Z,65.85
2019-04-10T12:46:47.163Z,66.56
2019-04-10T12:49:17.861Z,66.81
2019-04-10T12:51:56.281Z,65.41
2019-04-10T12:57:51.675Z,66.87
2019-04-10T13:03:55.710Z,66.48
2019-04-10T13:06:26.368Z,65.69
2019-04-10T13:09:07.374Z,66.34
2019-04-10T13:11:34.376Z,66.00
2019-04-10T13:14:06.326Z,65.34
2019-04-10T13:16:38.349Z,65.64
2019-04-10T13:19:09.139Z,66.24
2019-04-10T13:21:39.662Z,65.07
2019-04-10T13:24:11.583Z,65.63
2019-04-10T13:26:42.238Z,64.60
2019-04-10T13:29:14.135Z,65.75
2019-04-10T13:35:19.127Z,65.54
2019-04-10T13:37:51.266Z,65.62
2019-04-10T13:40:23.580Z,64.51
2019-04-10T13:42:55.719Z,64.40
2019-04-10T13:45:27.514Z,64.84
2019-04-10T13:47:59.326Z,63.07
2019-04-10T13:50:30.882Z,63.74
2019-04-10T13:53:04.155Z,63.84
2019-04-10T13:55:35.141Z,63.09
2019-04-10T13:58:07.359Z,63.63
2019-04-10T14:00:42.848Z,62.92
2019-04-10T14:03:19.204Z,63.55
2019-04-10T14:05:50.425Z,60.97
2019-04-10T14:08:35.995Z,60.32
2019-04-10T14:10:55.003Z,61.21
2019-04-10T14:13:26.098Z,60.96
2019-04-10T14:15:57.993Z,61.18
2019-04-10T14:18:43.644Z,60.68
2019-04-10T14:21:16.054Z,60.06
2019-04-10T14:23:53.704Z,60.43
2019-04-10T14:26:48.345Z,60.47
2019-04-10T14:29:20.631Z,59.87
2019-04-10T14:32:01.753Z,59.23
2019-04-10T14:34:38.677Z,58.35
2019-04-10T14:37:12.205Z,58.11
2019-04-10T14:42:16.086Z,58.60
2019-04-10T14:44:48.582Z,59.37
2019-04-10T14:47:29.685Z,60.53
2019-04-10T14:50:01.870Z,59.35
2019-04-10T14:52:37.145Z,60.13
2019-04-10T14:55:08.282Z,59.95
2019-04-10T14:57:41.347Z,58.93
2019-04-10T15:03:22.754Z,59.22
2019-04-10T15:05:55.308Z,57.98
2019-04-10T15:08:25.996Z,58.57
2019-04-10T15:10:56.754Z,58.95
2019-04-10T15:13:27.614Z,58.33
2019-04-10T15:15:58.743Z,58.21
2019-04-10T15:18:29.400Z,58.04
2019-04-10T15:21:00.693Z,58.35
2019-04-10T15:23:34.112Z,59.09
2019-04-10T15:28:41.414Z,58.68
2019-04-10T16:24:53.361Z,100.00
2019-04-10T16:29:03.996Z,100.00
2019-04-10T16:35:44.089Z,100.00
2019-04-10T17:03:44.579Z,58.28
2019-04-10T17:06:15.410Z,58.65
2019-04-10T17:08:46.045Z,59.45
2019-04-10T17:11:16.811Z,59.45
2019-04-10T17:13:52.736Z,59.04
2019-04-10T17:16:23.896Z,59.63
2019-04-10T17:18:57.189Z,60.21
2019-04-10T17:21:34.163Z,59.15
2019-04-10T17:24:11.291Z,59.93
2019-04-10T17:26:41.820Z,59.25
2019-04-10T17:29:16.648Z,59.05
2019-04-10T17:31:47.345Z,60.39
2019-04-10T17:34:18.707Z,59.89
2019-04-10T17:36:53.490Z,60.79
2019-04-10T17:39:25.178Z,59.85
2019-04-10T17:41:55.946Z,60.39
2019-04-10T17:44:26.581Z,60.77
2019-04-10T17:46:57.723Z,60.67
2019-04-10T17:49:29.688Z,60.45
2019-04-10T17:52:03.323Z,61.51
2019-04-10T17:54:32.913Z,61.01
2019-04-10T17:57:12.814Z,61.22
2019-04-10T17:59:43.392Z,61.35
2019-04-10T18:02:15.747Z,60.72
2019-04-10T18:04:46.549Z,60.87
2019-04-10T18:07:17.170Z,61.20
2019-04-10T18:09:50.716Z,61.78
2019-04-10T18:12:21.638Z,61.52
2019-04-10T18:14:52.396Z,61.99
2019-04-10T18:17:23.041Z,62.55
2019-04-10T18:19:54.581Z,62.50
2019-04-10T18:22:25.441Z,63.03
2019-04-10T18:24:56.039Z,63.40
2019-04-10T18:27:26.638Z,63.08
2019-04-10T18:29:57.381Z,63.65
2019-04-10T18:32:29.653Z,63.67
2019-04-10T18:35:00.485Z,64.00
2019-04-10T18:37:31.163Z,64.19
2019-04-10T18:40:01.816Z,64.31
2019-04-10T18:42:32.896Z,63.77
2019-04-10T18:45:03.779Z,63.27
2019-04-10T18:47:36.438Z,63.42
2019-04-10T18:50:09.977Z,64.30
2019-04-10T18:52:40.590Z,64.10
2019-04-10T18:55:12.185Z,63.68
2019-04-10T18:57:43.239Z,63.77
2019-04-10T23:03:13.506Z,59.04
2019-04-10T23:05:44.729Z,59.21
2019-04-10T23:08:21.354Z,59.64
2019-04-10T23:10:53.054Z,59.59
2019-04-10T23:13:30.081Z,59.64
2019-04-10T23:16:01.907Z,59.03
2019-04-10T23:18:33.769Z,59.22
2019-04-10T23:21:08.102Z,59.00
2019-04-10T23:23:39.013Z,59.49
2019-04-10T23:26:17.286Z,59.71
2019-04-10T23:28:47.944Z,60.21
2019-04-10T23:31:18.779Z,59.95
2019-04-10T23:33:50.323Z,60.28
2019-04-10T23:36:23.120Z,59.83
2019-04-10T23:38:53.400Z,59.77
2019-04-10T23:41:25.340Z,59.26
2019-04-10T23:43:56.180Z,60.23
2019-04-10T23:46:26.725Z,60.09
2019-04-10T23:48:57.388Z,60.37
2019-04-10T23:51:31.470Z,60.25
2019-04-10T23:54:02.819Z,60.65
2019-04-10T23:56:33.710Z,61.25
2019-04-10T23:59:04.544Z,63.09
